Snoqualmie Pass, Washington
Current Conditions -  °F | °C
As of 3:53 PM on Wednesday 22 Oct 2014 (Local Time) from KRNT Reporting Station
Light Rain Light Rain  
Wind Chill: 56°   Ceiling: 7000
Heat Index: 56°   Visibility: 3mi
Dew Point: 54°   Wind: 5mph
Humidity: 93%   Direction: 160°SSE
Pressure: 29.64"   Gusts: NA
Location:  47.43°N, 121.4°W
Report Text: KRNT 222253Z 16004KT 3SM -RA BR FEW055 OVC070 13/12 A2964 RMK AO2 SLP043 P0006 T01330122
Loading
Personal Weather Stations






























Interactive Weather Map
Tropical Storm Tracking
New forecast layout! Learn more

10-Day Weather Forecast

Advertisements
Track Severe Weather on mobile